sensor_id;sensor_type;location;lat;lon;timestamp;pressure;altitude;pressure_sealevel;temperature;humidity
5691;BME280;2870;42.680;23.364;2023-01-27T00:00:38;94303.16;;;1.00;100.00
5691;BME280;2870;42.680;23.364;2023-01-27T00:03:05;94296.63;;;1.03;100.00
5691;BME280;2870;42.680;23.364;2023-01-27T00:05:32;94306.56;;;1.36;100.00
5691;BME280;2870;42.680;23.364;2023-01-27T00:07:59;94307.16;;;1.04;100.00
5691;BME280;2870;42.680;23.364;2023-01-27T00:10:27;94298.41;;;1.25;100.00
5691;BME280;2870;42.680;23.364;2023-01-27T00:12:54;94293.69;;;1.20;100.00
5691;BME280;2870;42.680;23.364;2023-01-27T00:15:39;94291.00;;;1.14;100.00
5691;BME280;2870;42.680;23.364;2023-01-27T00:18:06;94282.63;;;0.95;100.00
5691;BME280;2870;42.680;23.364;2023-01-27T00:20:33;94283.88;;;0.94;100.00
5691;BME280;2870;42.680;23.364;2023-01-27T00:23:18;94283.88;;;0.94;100.00
5691;BME280;2870;42.680;23.364;2023-01-27T00:26:06;94264.59;;;1.13;100.00
5691;BME280;2870;42.680;23.364;2023-01-27T00:28:33;94258.13;;;1.11;100.00
5691;BME280;2870;42.680;23.364;2023-01-27T00:31:00;94265.50;;;1.02;100.00
5691;BME280;2870;42.680;23.364;2023-01-27T00:33:27;94261.72;;;1.24;100.00
5691;BME280;2870;42.680;23.364;2023-01-27T00:35:57;94258.47;;;1.01;100.00
5691;BME280;2870;42.680;23.364;2023-01-27T00:38:25;94269.97;;;1.05;100.00
5691;BME280;2870;42.680;23.364;2023-01-27T00:40:52;94277.91;;;0.90;100.00
5691;BME280;2870;42.680;23.364;2023-01-27T00:43:37;94269.13;;;0.92;100.00
5691;BME280;2870;42.680;23.364;2023-01-27T00:46:04;94269.44;;;1.07;100.00
5691;BME280;2870;42.680;23.364;2023-01-27T00:48:31;94271.81;;;0.97;100.00
5691;BME280;2870;42.680;23.364;2023-01-27T00:50:59;94276.88;;;0.93;100.00
5691;BME280;2870;42.680;23.364;2023-01-27T00:53:26;94287.06;;;1.04;100.00
5691;BME280;2870;42.680;23.364;2023-01-27T00:55:53;94278.53;;;1.02;100.00
5691;BME280;2870;42.680;23.364;2023-01-27T00:58:20;94287.19;;;1.17;100.00
5691;BME280;2870;42.680;23.364;2023-01-27T01:00:48;94280.44;;;1.13;100.00
5691;BME280;2870;42.680;23.364;2023-01-27T01:03:15;94274.91;;;1.13;100.00
5691;BME280;2870;42.680;23.364;2023-01-27T01:05:42;94273.66;;;1.38;100.00
5691;BME280;2870;42.680;23.364;2023-01-27T01:08:09;94271.94;;;1.54;100.00
5691;BME280;2870;42.680;23.364;2023-01-27T01:10:36;94264.88;;;1.34;100.00
5691;BME280;2870;42.680;23.364;2023-01-27T01:13:03;94274.00;;;1.29;100.00
5691;BME280;2870;42.680;23.364;2023-01-27T01:15:34;94266.56;;;1.43;100.00
5691;BME280;2870;42.680;23.364;2023-01-27T01:18:03;94269.19;;;1.54;100.00
5691;BME280;2870;42.680;23.364;2023-01-27T01:20:30;94253.41;;;1.49;100.00
5691;BME280;2870;42.680;23.364;2023-01-27T01:23:00;94281.47;;;1.34;100.00
5691;BME280;2870;42.680;23.364;2023-01-27T01:25:27;94278.81;;;1.23;100.00
5691;BME280;2870;42.680;23.364;2023-01-27T01:27:54;94272.03;;;1.24;100.00
5691;BME280;2870;42.680;23.364;2023-01-27T01:30:21;94266.88;;;1.15;100.00
5691;BME280;2870;42.680;23.364;2023-01-27T01:32:50;94262.84;;;1.16;100.00
5691;BME280;2870;42.680;23.364;2023-01-27T01:35:19;94272.44;;;1.09;100.00
5691;BME280;2870;42.680;23.364;2023-01-27T01:37:46;94271.25;;;1.04;100.00
5691;BME280;2870;42.680;23.364;2023-01-27T01:40:13;94283.84;;;1.00;100.00
5691;BME280;2870;42.680;23.364;2023-01-27T01:42:54;94287.28;;;1.06;100.00
5691;BME280;2870;42.680;23.364;2023-01-27T01:45:42;94295.13;;;1.26;100.00
5691;BME280;2870;42.680;23.364;2023-01-27T01:48:13;94294.56;;;1.52;100.00
5691;BME280;2870;42.680;23.364;2023-01-27T01:50:46;94286.66;;;1.43;100.00
5691;BME280;2870;42.680;23.364;2023-01-27T01:53:13;94280.44;;;1.37;100.00
5691;BME280;2870;42.680;23.364;2023-01-27T01:55:40;94266.69;;;1.31;100.00
5691;BME280;2870;42.680;23.364;2023-01-27T01:58:09;94262.94;;;1.29;100.00
5691;BME280;2870;42.680;23.364;2023-01-27T02:00:37;94258.63;;;1.52;100.00
5691;BME280;2870;42.680;23.364;2023-01-27T02:03:05;94257.00;;;1.44;100.00
5691;BME280;2870;42.680;23.364;2023-01-27T02:05:34;94245.03;;;1.36;100.00
5691;BME280;2870;42.680;23.364;2023-01-27T02:08:09;94239.63;;;1.24;100.00
5691;BME280;2870;42.680;23.364;2023-01-27T02:10:40;94242.09;;;1.28;100.00
5691;BME280;2870;42.680;23.364;2023-01-27T02:13:06;94230.84;;;1.26;100.00
5691;BME280;2870;42.680;23.364;2023-01-27T02:15:33;94221.47;;;1.53;100.00
5691;BME280;2870;42.680;23.364;2023-01-27T02:18:00;94213.16;;;1.53;100.00
5691;BME280;2870;42.680;23.364;2023-01-27T02:20:32;94213.25;;;1.48;100.00
5691;BME280;2870;42.680;23.364;2023-01-27T02:23:10;94212.03;;;1.43;100.00
5691;BME280;2870;42.680;23.364;2023-01-27T02:25:46;94210.09;;;1.38;100.00
5691;BME280;2870;42.680;23.364;2023-01-27T02:28:13;94213.22;;;1.29;100.00
5691;BME280;2870;42.680;23.364;2023-01-27T02:30:40;94218.50;;;1.27;100.00
5691;BME280;2870;42.680;23.364;2023-01-27T02:33:09;94210.97;;;1.27;100.00
5691;BME280;2870;42.680;23.364;2023-01-27T02:35:40;94219.66;;;1.13;100.00
5691;BME280;2870;42.680;23.364;2023-01-27T02:38:10;94204.38;;;1.12;100.00
5691;BME280;2870;42.680;23.364;2023-01-27T02:40:38;94211.16;;;1.11;100.00
5691;BME280;2870;42.680;23.364;2023-01-27T02:43:07;94203.50;;;1.22;100.00
5691;BME280;2870;42.680;23.364;2023-01-27T02:45:34;94203.22;;;1.64;100.00
5691;BME280;2870;42.680;23.364;2023-01-27T02:48:01;94225.56;;;1.66;100.00
5691;BME280;2870;42.680;23.364;2023-01-27T02:50:28;94225.84;;;1.43;100.00
5691;BME280;2870;42.680;23.364;2023-01-27T02:52:54;94229.78;;;1.29;100.00
5691;BME280;2870;42.680;23.364;2023-01-27T02:55:21;94226.81;;;1.27;100.00
5691;BME280;2870;42.680;23.364;2023-01-27T02:57:48;94229.41;;;1.19;100.00
5691;BME280;2870;42.680;23.364;2023-01-27T03:00:17;94226.66;;;1.19;100.00
5691;BME280;2870;42.680;23.364;2023-01-27T03:02:44;94221.28;;;1.27;100.00
5691;BME280;2870;42.680;23.364;2023-01-27T03:05:11;94223.16;;;1.38;100.00
5691;BME280;2870;42.680;23.364;2023-01-27T03:07:38;94214.81;;;1.43;100.00
5691;BME280;2870;42.680;23.364;2023-01-27T03:10:07;94202.78;;;1.59;100.00
5691;BME280;2870;42.680;23.364;2023-01-27T03:12:34;94213.84;;;1.59;100.00
5691;BME280;2870;42.680;23.364;2023-01-27T03:15:01;94199.56;;;1.55;100.00
5691;BME280;2870;42.680;23.364;2023-01-27T03:17:47;94194.56;;;1.54;100.00
5691;BME280;2870;42.680;23.364;2023-01-27T03:20:31;94197.31;;;1.35;100.00
5691;BME280;2870;42.680;23.364;2023-01-27T03:22:57;94186.19;;;1.22;100.00
5691;BME280;2870;42.680;23.364;2023-01-27T03:25:24;94190.00;;;1.38;100.00
5691;BME280;2870;42.680;23.364;2023-01-27T03:27:51;94184.41;;;1.43;100.00
5691;BME280;2870;42.680;23.364;2023-01-27T03:30:18;94183.88;;;1.26;100.00
5691;BME280;2870;42.680;23.364;2023-01-27T03:32:46;94170.88;;;1.21;100.00
5691;BME280;2870;42.680;23.364;2023-01-27T03:35:14;94165.28;;;1.26;100.00
5691;BME280;2870;42.680;23.364;2023-01-27T03:37:42;94172.22;;;1.33;100.00
5691;BME280;2870;42.680;23.364;2023-01-27T03:40:26;94152.59;;;1.55;100.00
5691;BME280;2870;42.680;23.364;2023-01-27T03:43:11;94154.72;;;1.63;100.00
5691;BME280;2870;42.680;23.364;2023-01-27T03:45:55;94143.78;;;1.38;100.00
5691;BME280;2870;42.680;23.364;2023-01-27T03:48:42;94141.56;;;1.69;100.00
5691;BME280;2870;42.680;23.364;2023-01-27T03:51:09;94138.38;;;1.65;100.00
5691;BME280;2870;42.680;23.364;2023-01-27T03:53:36;94142.88;;;1.30;100.00
5691;BME280;2870;42.680;23.364;2023-01-27T03:56:04;94158.13;;;1.37;100.00
5691;BME280;2870;42.680;23.364;2023-01-27T03:58:32;94148.53;;;1.56;100.00
5691;BME280;2870;42.680;23.364;2023-01-27T04:01:01;94150.44;;;1.48;100.00
5691;BME280;2870;42.680;23.364;2023-01-27T04:03:31;94157.06;;;1.40;100.00
5691;BME280;2870;42.680;23.364;2023-01-27T04:06:18;94180.78;;;1.11;100.00
5691;BME280;2870;42.680;23.364;2023-01-27T04:09:04;94189.88;;;1.05;100.00
5691;BME280;2870;42.680;23.364;2023-01-27T04:11:31;94195.53;;;0.94;100.00
5691;BME280;2870;42.680;23.364;2023-01-27T04:14:16;94213.22;;;0.86;100.00
5691;BME280;2870;42.680;23.364;2023-01-27T04:16:43;94226.13;;;0.96;100.00
5691;BME280;2870;42.680;23.364;2023-01-27T04:19:10;94227.00;;;1.10;100.00
5691;BME280;2870;42.680;23.364;2023-01-27T04:21:39;94223.25;;;1.51;100.00
5691;BME280;2870;42.680;23.364;2023-01-27T04:24:06;94214.94;;;1.51;100.00
5691;BME280;2870;42.680;23.364;2023-01-27T04:26:42;94221.16;;;1.57;100.00
5691;BME280;2870;42.680;23.364;2023-01-27T04:29:11;94224.44;;;1.55;100.00
5691;BME280;2870;42.680;23.364;2023-01-27T04:31:38;94231.81;;;1.28;100.00
5691;BME280;2870;42.680;23.364;2023-01-27T04:34:06;94242.63;;;1.26;100.00
5691;BME280;2870;42.680;23.364;2023-01-27T04:36:33;94243.91;;;1.25;100.00
5691;BME280;2870;42.680;23.364;2023-01-27T04:39:01;94238.19;;;1.42;100.00
5691;BME280;2870;42.680;23.364;2023-01-27T04:41:28;94228.41;;;1.17;100.00
5691;BME280;2870;42.680;23.364;2023-01-27T04:43:54;94242.91;;;1.23;100.00
5691;BME280;2870;42.680;23.364;2023-01-27T04:46:21;94251.03;;;1.15;100.00
5691;BME280;2870;42.680;23.364;2023-01-27T04:48:48;94235.91;;;1.22;100.00
5691;BME280;2870;42.680;23.364;2023-01-27T04:51:14;94237.03;;;1.32;100.00
5691;BME280;2870;42.680;23.364;2023-01-27T04:53:41;94240.34;;;1.30;100.00
5691;BME280;2870;42.680;23.364;2023-01-27T04:56:19;94247.50;;;1.39;100.00
5691;BME280;2870;42.680;23.364;2023-01-27T04:58:46;94244.00;;;1.57;100.00
5691;BME280;2870;42.680;23.364;2023-01-27T05:01:13;94244.75;;;1.39;100.00
5691;BME280;2870;42.680;23.364;2023-01-27T05:03:40;94251.53;;;1.38;100.00
5691;BME280;2870;42.680;23.364;2023-01-27T05:06:07;94252.41;;;1.71;100.00
5691;BME280;2870;42.680;23.364;2023-01-27T05:08:35;94245.81;;;1.74;100.00
5691;BME280;2870;42.680;23.364;2023-01-27T05:11:01;94244.88;;;1.47;100.00
5691;BME280;2870;42.680;23.364;2023-01-27T05:13:30;94238.31;;;1.31;100.00
5691;BME280;2870;42.680;23.364;2023-01-27T05:16:11;94246.59;;;1.31;100.00
5691;BME280;2870;42.680;23.364;2023-01-27T05:18:39;94237.28;;;1.53;100.00
5691;BME280;2870;42.680;23.364;2023-01-27T05:21:07;94241.09;;;1.50;100.00
5691;BME280;2870;42.680;23.364;2023-01-27T05:23:35;94239.00;;;1.75;100.00
5691;BME280;2870;42.680;23.364;2023-01-27T05:26:08;94240.25;;;1.93;100.00
5691;BME280;2870;42.680;23.364;2023-01-27T05:28:37;94223.69;;;1.74;100.00
5691;BME280;2870;42.680;23.364;2023-01-27T05:31:06;94221.97;;;1.52;100.00
5691;BME280;2870;42.680;23.364;2023-01-27T05:33:34;94227.22;;;1.55;100.00
5691;BME280;2870;42.680;23.364;2023-01-27T05:36:02;94224.44;;;1.55;100.00
5691;BME280;2870;42.680;23.364;2023-01-27T05:38:30;94222.03;;;1.46;100.00
5691;BME280;2870;42.680;23.364;2023-01-27T05:40:58;94220.94;;;1.55;100.00
5691;BME280;2870;42.680;23.364;2023-01-27T05:43:27;94209.81;;;1.61;100.00
5691;BME280;2870;42.680;23.364;2023-01-27T05:46:02;94199.63;;;1.50;100.00
5691;BME280;2870;42.680;23.364;2023-01-27T05:48:29;94211.66;;;1.33;100.00
5691;BME280;2870;42.680;23.364;2023-01-27T05:50:57;94212.09;;;1.38;100.00
5691;BME280;2870;42.680;23.364;2023-01-27T05:53:25;94220.78;;;1.85;100.00
5691;BME280;2870;42.680;23.364;2023-01-27T05:55:52;94215.53;;;1.63;100.00
5691;BME280;2870;42.680;23.364;2023-01-27T05:58:19;94231.25;;;1.73;100.00
5691;BME280;2870;42.680;23.364;2023-01-27T06:00:46;94235.22;;;1.59;100.00
5691;BME280;2870;42.680;23.364;2023-01-27T06:03:14;94229.66;;;1.40;100.00
5691;BME280;2870;42.680;23.364;2023-01-27T06:05:54;94234.28;;;1.51;100.00
5691;BME280;2870;42.680;23.364;2023-01-27T06:08:22;94229.34;;;1.81;100.00
5691;BME280;2870;42.680;23.364;2023-01-27T06:10:49;94233.41;;;1.80;100.00
5691;BME280;2870;42.680;23.364;2023-01-27T06:13:17;94221.28;;;1.46;100.00
5691;BME280;2870;42.680;23.364;2023-01-27T06:15:45;94217.63;;;1.38;100.00
5691;BME280;2870;42.680;23.364;2023-01-27T06:18:14;94228.16;;;1.39;100.00
5691;BME280;2870;42.680;23.364;2023-01-27T06:20:41;94226.44;;;1.36;100.00
5691;BME280;2870;42.680;23.364;2023-01-27T06:23:09;94233.63;;;1.45;100.00
5691;BME280;2870;42.680;23.364;2023-01-27T06:25:37;94233.09;;;1.84;100.00
5691;BME280;2870;42.680;23.364;2023-01-27T06:28:04;94231.31;;;1.68;100.00
5691;BME280;2870;42.680;23.364;2023-01-27T06:30:32;94232.88;;;1.44;100.00
5691;BME280;2870;42.680;23.364;2023-01-27T06:33:00;94231.91;;;1.61;100.00
5691;BME280;2870;42.680;23.364;2023-01-27T06:35:29;94224.06;;;1.46;100.00
5691;BME280;2870;42.680;23.364;2023-01-27T06:37:56;94223.84;;;1.63;100.00
5691;BME280;2870;42.680;23.364;2023-01-27T06:40:23;94229.22;;;1.55;100.00
5691;BME280;2870;42.680;23.364;2023-01-27T06:42:50;94231.59;;;1.64;100.00
5691;BME280;2870;42.680;23.364;2023-01-27T06:45:17;94240.50;;;1.57;100.00
5691;BME280;2870;42.680;23.364;2023-01-27T06:47:43;94240.41;;;1.63;100.00
5691;BME280;2870;42.680;23.364;2023-01-27T06:50:10;94248.19;;;2.02;100.00
5691;BME280;2870;42.680;23.364;2023-01-27T06:52:39;94243.91;;;2.20;98.92
5691;BME280;2870;42.680;23.364;2023-01-27T06:55:06;94253.94;;;2.23;97.55
5691;BME280;2870;42.680;23.364;2023-01-27T06:57:32;94252.53;;;1.97;97.24
5691;BME280;2870;42.680;23.364;2023-01-27T06:59:59;94263.22;;;1.69;99.15
5691;BME280;2870;42.680;23.364;2023-01-27T07:02:26;94262.31;;;1.79;99.19
5691;BME280;2870;42.680;23.364;2023-01-27T07:04:53;94255.00;;;2.01;99.42
5691;BME280;2870;42.680;23.364;2023-01-27T07:07:19;94258.22;;;2.05;98.65
5691;BME280;2870;42.680;23.364;2023-01-27T07:09:47;94261.50;;;1.84;99.25
5691;BME280;2870;42.680;23.364;2023-01-27T07:12:14;94263.06;;;1.80;99.06
5691;BME280;2870;42.680;23.364;2023-01-27T07:14:41;94265.31;;;2.00;98.71
5691;BME280;2870;42.680;23.364;2023-01-27T07:17:08;94257.38;;;1.91;99.19
5691;BME280;2870;42.680;23.364;2023-01-27T07:19:35;94253.88;;;1.72;99.10
5691;BME280;2870;42.680;23.364;2023-01-27T07:22:02;94261.03;;;1.80;99.66
5691;BME280;2870;42.680;23.364;2023-01-27T07:24:29;94260.00;;;1.83;99.81
5691;BME280;2870;42.680;23.364;2023-01-27T07:26:57;94249.47;;;1.82;98.73
5691;BME280;2870;42.680;23.364;2023-01-27T07:29:24;94253.59;;;1.94;98.13
5691;BME280;2870;42.680;23.364;2023-01-27T07:31:50;94257.56;;;1.99;97.92
5691;BME280;2870;42.680;23.364;2023-01-27T07:34:17;94250.97;;;1.83;98.18
5691;BME280;2870;42.680;23.364;2023-01-27T07:36:44;94258.50;;;2.01;98.54
5691;BME280;2870;42.680;23.364;2023-01-27T07:39:11;94261.50;;;2.03;98.46
5691;BME280;2870;42.680;23.364;2023-01-27T07:41:38;94266.28;;;2.03;98.02
5691;BME280;2870;42.680;23.364;2023-01-27T07:44:06;94257.47;;;2.36;97.66
5691;BME280;2870;42.680;23.364;2023-01-27T07:46:33;94262.22;;;2.23;97.28
5691;BME280;2870;42.680;23.364;2023-01-27T07:48:59;94247.25;;;2.31;96.81
5691;BME280;2870;42.680;23.364;2023-01-27T07:51:26;94257.88;;;2.27;96.85
5691;BME280;2870;42.680;23.364;2023-01-27T07:53:53;94271.03;;;2.21;96.63
5691;BME280;2870;42.680;23.364;2023-01-27T07:56:20;94263.94;;;2.26;96.93
5691;BME280;2870;42.680;23.364;2023-01-27T07:58:47;94268.28;;;2.02;96.63
5691;BME280;2870;42.680;23.364;2023-01-27T08:01:15;94269.88;;;1.98;95.89
5691;BME280;2870;42.680;23.364;2023-01-27T08:03:42;94261.06;;;1.99;96.92
5691;BME280;2870;42.680;23.364;2023-01-27T08:06:10;94255.44;;;2.56;95.72
5691;BME280;2870;42.680;23.364;2023-01-27T08:08:38;94266.59;;;2.50;93.96
5691;BME280;2870;42.680;23.364;2023-01-27T08:11:08;94261.88;;;2.45;94.42
5691;BME280;2870;42.680;23.364;2023-01-27T08:13:36;94260.75;;;2.22;95.41
5691;BME280;2870;42.680;23.364;2023-01-27T08:16:04;94248.22;;;2.34;95.09
5691;BME280;2870;42.680;23.364;2023-01-27T08:18:34;94255.25;;;2.35;94.68
5691;BME280;2870;42.680;23.364;2023-01-27T08:21:03;94245.53;;;2.28;95.55
5691;BME280;2870;42.680;23.364;2023-01-27T08:23:31;94251.78;;;2.16;94.53
5691;BME280;2870;42.680;23.364;2023-01-27T08:25:59;94258.06;;;1.97;94.54
5691;BME280;2870;42.680;23.364;2023-01-27T08:28:28;94273.81;;;2.02;93.42
5691;BME280;2870;42.680;23.364;2023-01-27T08:31:03;94260.91;;;2.10;95.05
5691;BME280;2870;42.680;23.364;2023-01-27T08:33:30;94246.25;;;2.16;94.78
5691;BME280;2870;42.680;23.364;2023-01-27T08:36:03;94256.94;;;2.38;93.27
5691;BME280;2870;42.680;23.364;2023-01-27T08:38:30;94267.31;;;2.19;93.47
5691;BME280;2870;42.680;23.364;2023-01-27T08:41:02;94270.31;;;2.02;93.74
5691;BME280;2870;42.680;23.364;2023-01-27T08:43:29;94252.00;;;1.80;94.18
5691;BME280;2870;42.680;23.364;2023-01-27T08:45:55;94279.44;;;2.16;94.01
5691;BME280;2870;42.680;23.364;2023-01-27T08:48:24;94278.59;;;2.21;94.29
5691;BME280;2870;42.680;23.364;2023-01-27T08:50:51;94256.53;;;2.34;94.32
5691;BME280;2870;42.680;23.364;2023-01-27T08:53:20;94270.28;;;2.39;93.69
5691;BME280;2870;42.680;23.364;2023-01-27T08:55:47;94280.28;;;2.10;92.92
5691;BME280;2870;42.680;23.364;2023-01-27T08:58:15;94270.63;;;2.17;93.29
5691;BME280;2870;42.680;23.364;2023-01-27T09:00:42;94260.41;;;2.25;92.05
5691;BME280;2870;42.680;23.364;2023-01-27T09:03:09;94266.28;;;2.22;92.72
5691;BME280;2870;42.680;23.364;2023-01-27T09:05:36;94270.69;;;2.11;94.13
5691;BME280;2870;42.680;23.364;2023-01-27T09:08:04;94272.78;;;1.86;93.65
5691;BME280;2870;42.680;23.364;2023-01-27T09:10:35;94264.25;;;2.03;95.67
5691;BME280;2870;42.680;23.364;2023-01-27T09:13:02;94262.16;;;2.28;94.48
5691;BME280;2870;42.680;23.364;2023-01-27T09:15:29;94265.81;;;2.18;94.48
5691;BME280;2870;42.680;23.364;2023-01-27T09:17:55;94264.78;;;2.53;94.35
5691;BME280;2870;42.680;23.364;2023-01-27T09:20:23;94267.63;;;2.79;92.30
5691;BME280;2870;42.680;23.364;2023-01-27T09:22:49;94271.78;;;2.86;91.35
5691;BME280;2870;42.680;23.364;2023-01-27T09:25:16;94259.03;;;2.96;91.69
5691;BME280;2870;42.680;23.364;2023-01-27T09:27:45;94253.41;;;2.24;92.56
5691;BME280;2870;42.680;23.364;2023-01-27T09:30:13;94258.22;;;1.86;93.29
5691;BME280;2870;42.680;23.364;2023-01-27T09:32:41;94258.44;;;1.88;94.66
5691;BME280;2870;42.680;23.364;2023-01-27T09:35:08;94244.38;;;1.86;95.21
5691;BME280;2870;42.680;23.364;2023-01-27T09:37:38;94240.50;;;1.76;96.04
5691;BME280;2870;42.680;23.364;2023-01-27T09:40:13;94235.72;;;1.95;96.14
5691;BME280;2870;42.680;23.364;2023-01-27T09:43:02;94229.88;;;1.99;95.81
5691;BME280;2870;42.680;23.364;2023-01-27T09:45:47;94225.94;;;1.94;95.87
5691;BME280;2870;42.680;23.364;2023-01-27T09:48:28;94230.69;;;2.12;96.30
5691;BME280;2870;42.680;23.364;2023-01-27T09:51:04;94227.66;;;1.78;96.40
5691;BME280;2870;42.680;23.364;2023-01-27T09:53:49;94234.88;;;1.81;96.33
5691;BME280;2870;42.680;23.364;2023-01-27T09:56:21;94228.78;;;1.89;98.24
5691;BME280;2870;42.680;23.364;2023-01-27T09:59:09;94217.06;;;2.15;96.38
5691;BME280;2870;42.680;23.364;2023-01-27T10:01:48;94212.06;;;2.45;96.55
5691;BME280;2870;42.680;23.364;2023-01-27T10:04:45;94210.63;;;2.25;95.13
5691;BME280;2870;42.680;23.364;2023-01-27T10:07:27;94212.41;;;1.91;95.97
5691;BME280;2870;42.680;23.364;2023-01-27T10:10:15;94205.09;;;1.93;96.92
5691;BME280;2870;42.680;23.364;2023-01-27T10:13:04;94202.41;;;1.88;96.28
5691;BME280;2870;42.680;23.364;2023-01-27T10:15:48;94198.13;;;1.86;96.92
5691;BME280;2870;42.680;23.364;2023-01-27T10:18:30;94207.06;;;2.11;97.01
5691;BME280;2870;42.680;23.364;2023-01-27T10:21:08;94204.03;;;2.28;96.35
5691;BME280;2870;42.680;23.364;2023-01-27T10:23:46;94206.94;;;1.85;96.05
5691;BME280;2870;42.680;23.364;2023-01-27T10:26:22;94206.03;;;1.96;96.46
5691;BME280;2870;42.680;23.364;2023-01-27T10:29:02;94205.31;;;2.27;97.08
5691;BME280;2870;42.680;23.364;2023-01-27T10:31:35;94190.34;;;2.49;95.34
5691;BME280;2870;42.680;23.364;2023-01-27T10:34:08;94201.69;;;2.78;93.84
5691;BME280;2870;42.680;23.364;2023-01-27T10:36:43;94201.28;;;2.87;92.51
5691;BME280;2870;42.680;23.364;2023-01-27T10:39:17;94200.91;;;2.19;93.14
5691;BME280;2870;42.680;23.364;2023-01-27T10:41:55;94203.88;;;1.70;94.42
5691;BME280;2870;42.680;23.364;2023-01-27T10:44:45;94208.59;;;1.75;95.41
5691;BME280;2870;42.680;23.364;2023-01-27T10:47:33;94203.84;;;2.07;95.72
5691;BME280;2870;42.680;23.364;2023-01-27T10:50:08;94205.41;;;2.67;94.57
5691;BME280;2870;42.680;23.364;2023-01-27T10:52:41;94189.94;;;2.72;92.99
5691;BME280;2870;42.680;23.364;2023-01-27T10:55:15;94192.22;;;2.86;92.79
5691;BME280;2870;42.680;23.364;2023-01-27T10:57:47;94190.78;;;2.66;92.11
5691;BME280;2870;42.680;23.364;2023-01-27T11:00:21;94182.47;;;2.40;92.12
5691;BME280;2870;42.680;23.364;2023-01-27T11:02:59;94198.56;;;2.55;93.64
5691;BME280;2870;42.680;23.364;2023-01-27T11:05:32;94191.38;;;2.01;94.11
5691;BME280;2870;42.680;23.364;2023-01-27T11:08:04;94198.22;;;2.13;94.01
5691;BME280;2870;42.680;23.364;2023-01-27T11:10:36;94195.09;;;2.22;95.34
5691;BME280;2870;42.680;23.364;2023-01-27T11:13:25;94186.06;;;2.35;96.27
5691;BME280;2870;42.680;23.364;2023-01-27T11:15:53;94196.38;;;2.80;93.91
5691;BME280;2870;42.680;23.364;2023-01-27T11:18:22;94185.00;;;2.38;93.91
5691;BME280;2870;42.680;23.364;2023-01-27T11:20:55;94171.19;;;2.06;94.73
5691;BME280;2870;42.680;23.364;2023-01-27T11:23:26;94170.88;;;1.77;94.57
5691;BME280;2870;42.680;23.364;2023-01-27T11:25:59;94179.56;;;2.00;95.92
5691;BME280;2870;42.680;23.364;2023-01-27T11:28:31;94161.13;;;1.90;95.13
5691;BME280;2870;42.680;23.364;2023-01-27T11:31:06;94165.34;;;2.09;94.88
5691;BME280;2870;42.680;23.364;2023-01-27T11:33:48;94166.94;;;2.05;94.09
5691;BME280;2870;42.680;23.364;2023-01-27T11:36:19;94167.88;;;2.07;94.86
5691;BME280;2870;42.680;23.364;2023-01-27T11:38:46;94170.03;;;1.82;95.65
5691;BME280;2870;42.680;23.364;2023-01-27T11:41:13;94175.56;;;1.64;95.38
5691;BME280;2870;42.680;23.364;2023-01-27T11:43:40;94169.97;;;1.88;94.98
5691;BME280;2870;42.680;23.364;2023-01-27T11:46:21;94170.94;;;2.23;95.23
5691;BME280;2870;42.680;23.364;2023-01-27T11:48:53;94164.75;;;2.17;94.39
5691;BME280;2870;42.680;23.364;2023-01-27T11:51:22;94170.81;;;2.74;92.76
5691;BME280;2870;42.680;23.364;2023-01-27T11:54:01;94163.56;;;2.25;92.34
5691;BME280;2870;42.680;23.364;2023-01-27T11:56:29;94165.28;;;1.96;93.52
5691;BME280;2870;42.680;23.364;2023-01-27T11:59:01;94164.50;;;1.82;94.51
5691;BME280;2870;42.680;23.364;2023-01-27T12:01:38;94161.97;;;2.17;93.96
5691;BME280;2870;42.680;23.364;2023-01-27T12:04:16;94149.81;;;2.06;94.45
5691;BME280;2870;42.680;23.364;2023-01-27T12:06:47;94159.41;;;1.86;94.31
5691;BME280;2870;42.680;23.364;2023-01-27T12:09:30;94153.28;;;1.94;94.19
5691;BME280;2870;42.680;23.364;2023-01-27T12:12:16;94152.66;;;2.33;94.10
5691;BME280;2870;42.680;23.364;2023-01-27T12:14:47;94170.44;;;2.05;94.23
5691;BME280;2870;42.680;23.364;2023-01-27T12:17:19;94161.53;;;2.12;93.29
5691;BME280;2870;42.680;23.364;2023-01-27T12:19:48;94166.66;;;2.22;95.26
5691;BME280;2870;42.680;23.364;2023-01-27T12:22:22;94169.19;;;2.20;93.72
5691;BME280;2870;42.680;23.364;2023-01-27T12:24:54;94163.38;;;2.23;93.60
5691;BME280;2870;42.680;23.364;2023-01-27T12:27:25;94175.19;;;2.24;93.87
5691;BME280;2870;42.680;23.364;2023-01-27T12:29:54;94167.41;;;2.22;93.51
5691;BME280;2870;42.680;23.364;2023-01-27T12:32:31;94171.50;;;2.02;93.19
5691;BME280;2870;42.680;23.364;2023-01-27T12:35:01;94156.66;;;2.19;93.56
5691;BME280;2870;42.680;23.364;2023-01-27T12:37:31;94164.59;;;2.54;93.63
5691;BME280;2870;42.680;23.364;2023-01-27T12:40:00;94163.94;;;2.35;92.04
5691;BME280;2870;42.680;23.364;2023-01-27T12:42:39;94164.63;;;2.68;93.51
5691;BME280;2870;42.680;23.364;2023-01-27T12:45:25;94163.13;;;2.80;91.90
5691;BME280;2870;42.680;23.364;2023-01-27T12:47:56;94161.31;;;2.69;92.20
5691;BME280;2870;42.680;23.364;2023-01-27T12:50:26;94158.00;;;3.10;92.85
5691;BME280;2870;42.680;23.364;2023-01-27T12:53:02;94161.22;;;3.01;91.22
5691;BME280;2870;42.680;23.364;2023-01-27T12:55:31;94150.56;;;3.05;91.11
5691;BME280;2870;42.680;23.364;2023-01-27T12:57:59;94153.28;;;3.32;90.73
5691;BME280;2870;42.680;23.364;2023-01-27T13:00:26;94159.50;;;2.98;91.78
5691;BME280;2870;42.680;23.364;2023-01-27T13:03:02;94155.47;;;2.73;91.51
5691;BME280;2870;42.680;23.364;2023-01-27T13:05:36;94152.69;;;2.73;92.08
5691;BME280;2870;42.680;23.364;2023-01-27T13:08:12;94146.19;;;2.83;91.89
5691;BME280;2870;42.680;23.364;2023-01-27T13:10:48;94156.19;;;3.00;92.80
5691;BME280;2870;42.680;23.364;2023-01-27T13:13:19;94158.88;;;2.92;93.41
5691;BME280;2870;42.680;23.364;2023-01-27T13:15:53;94166.31;;;2.71;92.37
5691;BME280;2870;42.680;23.364;2023-01-27T13:18:21;94163.03;;;2.85;94.00
5691;BME280;2870;42.680;23.364;2023-01-27T13:20:54;94156.72;;;3.11;92.34
5691;BME280;2870;42.680;23.364;2023-01-27T13:23:24;94157.34;;;3.17;91.89
5691;BME280;2870;42.680;23.364;2023-01-27T13:25:56;94164.22;;;2.90;94.22
5691;BME280;2870;42.680;23.364;2023-01-27T13:28:27;94157.25;;;2.83;92.71
5691;BME280;2870;42.680;23.364;2023-01-27T13:30:59;94157.56;;;3.06;92.90
5691;BME280;2870;42.680;23.364;2023-01-27T13:33:35;94166.75;;;2.61;92.86
5691;BME280;2870;42.680;23.364;2023-01-27T13:36:10;94165.03;;;2.58;94.55